sensor_id;sensor_type;location;lat;lon;timestamp;temperature;humidity
15983;DHT22;14442;50.196;8.096;2023-07-13T00:00:46;20.50;54.90
15983;DHT22;14442;50.196;8.096;2023-07-13T00:03:13;20.50;55.10
15983;DHT22;14442;50.196;8.096;2023-07-13T00:05:40;20.50;54.80
15983;DHT22;14442;50.196;8.096;2023-07-13T00:08:06;20.50;54.80
15983;DHT22;14442;50.196;8.096;2023-07-13T00:10:39;20.40;54.90
15983;DHT22;14442;50.196;8.096;2023-07-13T00:13:05;20.40;54.80
15983;DHT22;14442;50.196;8.096;2023-07-13T00:15:32;20.40;54.90
15983;DHT22;14442;50.196;8.096;2023-07-13T00:18:00;20.30;54.70
15983;DHT22;14442;50.196;8.096;2023-07-13T00:20:27;20.30;55.00
15983;DHT22;14442;50.196;8.096;2023-07-13T00:22:54;20.30;54.90
15983;DHT22;14442;50.196;8.096;2023-07-13T00:25:21;20.20;55.00
15983;DHT22;14442;50.196;8.096;2023-07-13T00:27:50;20.10;55.10
15983;DHT22;14442;50.196;8.096;2023-07-13T00:30:18;20.20;55.40
15983;DHT22;14442;50.196;8.096;2023-07-13T00:32:44;20.10;55.20
15983;DHT22;14442;50.196;8.096;2023-07-13T00:35:14;20.10;55.40
15983;DHT22;14442;50.196;8.096;2023-07-13T00:37:41;20.00;55.40
15983;DHT22;14442;50.196;8.096;2023-07-13T00:40:09;20.00;55.40
15983;DHT22;14442;50.196;8.096;2023-07-13T00:42:36;20.00;55.10
15983;DHT22;14442;50.196;8.096;2023-07-13T00:46:02;20.00;55.20
15983;DHT22;14442;50.196;8.096;2023-07-13T00:47:56;19.90;55.20
15983;DHT22;14442;50.196;8.096;2023-07-13T00:50:24;19.90;55.30
15983;DHT22;14442;50.196;8.096;2023-07-13T00:52:53;19.90;55.20
15983;DHT22;14442;50.196;8.096;2023-07-13T00:55:23;19.90;55.20
15983;DHT22;14442;50.196;8.096;2023-07-13T00:57:50;19.90;55.20
15983;DHT22;14442;50.196;8.096;2023-07-13T01:00:22;19.80;55.20
15983;DHT22;14442;50.196;8.096;2023-07-13T01:02:49;19.70;55.20
15983;DHT22;14442;50.196;8.096;2023-07-13T01:05:18;19.70;55.40
15983;DHT22;14442;50.196;8.096;2023-07-13T01:07:48;19.70;55.40
15983;DHT22;14442;50.196;8.096;2023-07-13T01:10:16;19.60;55.60
15983;DHT22;14442;50.196;8.096;2023-07-13T01:12:43;19.60;55.70
15983;DHT22;14442;50.196;8.096;2023-07-13T01:15:36;19.50;55.60
15983;DHT22;14442;50.196;8.096;2023-07-13T01:18:04;19.50;55.60
15983;DHT22;14442;50.196;8.096;2023-07-13T01:20:31;19.50;55.60
15983;DHT22;14442;50.196;8.096;2023-07-13T01:23:04;19.50;55.60
15983;DHT22;14442;50.196;8.096;2023-07-13T01:25:33;19.50;55.60
15983;DHT22;14442;50.196;8.096;2023-07-13T01:28:00;19.50;55.40
15983;DHT22;14442;50.196;8.096;2023-07-13T01:30:27;19.40;55.40
15983;DHT22;14442;50.196;8.096;2023-07-13T01:32:54;19.40;55.30
15983;DHT22;14442;50.196;8.096;2023-07-13T01:35:20;19.30;55.50
15983;DHT22;14442;50.196;8.096;2023-07-13T01:37:47;19.30;55.30
15983;DHT22;14442;50.196;8.096;2023-07-13T01:40:15;19.30;55.30
15983;DHT22;14442;50.196;8.096;2023-07-13T01:42:42;19.30;55.30
15983;DHT22;14442;50.196;8.096;2023-07-13T01:45:09;19.20;55.30
15983;DHT22;14442;50.196;8.096;2023-07-13T01:47:36;19.10;55.60
15983;DHT22;14442;50.196;8.096;2023-07-13T01:50:03;19.10;55.40
15983;DHT22;14442;50.196;8.096;2023-07-13T01:52:29;19.10;55.60
15983;DHT22;14442;50.196;8.096;2023-07-13T01:54:56;19.10;55.80
15983;DHT22;14442;50.196;8.096;2023-07-13T01:57:24;19.10;55.80
15983;DHT22;14442;50.196;8.096;2023-07-13T01:59:51;19.10;55.60
15983;DHT22;14442;50.196;8.096;2023-07-13T02:02:17;19.00;55.90
15983;DHT22;14442;50.196;8.096;2023-07-13T02:04:45;19.10;56.00
15983;DHT22;14442;50.196;8.096;2023-07-13T02:07:12;19.00;56.10
15983;DHT22;14442;50.196;8.096;2023-07-13T02:09:38;18.90;56.00
15983;DHT22;14442;50.196;8.096;2023-07-13T02:12:06;18.90;55.70
15983;DHT22;14442;50.196;8.096;2023-07-13T02:14:34;18.90;55.90
15983;DHT22;14442;50.196;8.096;2023-07-13T02:17:01;19.00;55.60
15983;DHT22;14442;50.196;8.096;2023-07-13T02:19:29;18.90;55.50
15983;DHT22;14442;50.196;8.096;2023-07-13T02:21:56;18.90;55.40
15983;DHT22;14442;50.196;8.096;2023-07-13T02:24:22;18.80;55.40
15983;DHT22;14442;50.196;8.096;2023-07-13T02:26:49;18.80;55.30
15983;DHT22;14442;50.196;8.096;2023-07-13T02:29:16;18.70;55.70
15983;DHT22;14442;50.196;8.096;2023-07-13T02:31:44;18.80;55.40
15983;DHT22;14442;50.196;8.096;2023-07-13T02:34:11;18.90;55.40
15983;DHT22;14442;50.196;8.096;2023-07-13T02:36:37;18.80;55.30
15983;DHT22;14442;50.196;8.096;2023-07-13T02:39:05;18.70;55.10
15983;DHT22;14442;50.196;8.096;2023-07-13T02:41:32;18.70;55.40
15983;DHT22;14442;50.196;8.096;2023-07-13T02:43:59;18.60;55.50
15983;DHT22;14442;50.196;8.096;2023-07-13T02:46:29;18.60;55.50
15983;DHT22;14442;50.196;8.096;2023-07-13T02:48:57;18.50;55.60
15983;DHT22;14442;50.196;8.096;2023-07-13T02:51:23;18.60;55.60
15983;DHT22;14442;50.196;8.096;2023-07-13T02:53:50;18.50;55.70
15983;DHT22;14442;50.196;8.096;2023-07-13T02:56:18;18.60;55.80
15983;DHT22;14442;50.196;8.096;2023-07-13T02:58:45;18.60;55.60
15983;DHT22;14442;50.196;8.096;2023-07-13T03:01:12;18.50;55.60
15983;DHT22;14442;50.196;8.096;2023-07-13T03:03:43;18.50;55.70
15983;DHT22;14442;50.196;8.096;2023-07-13T03:06:12;18.60;55.60
15983;DHT22;14442;50.196;8.096;2023-07-13T03:08:39;18.60;55.50
15983;DHT22;14442;50.196;8.096;2023-07-13T03:11:09;18.50;55.60
15983;DHT22;14442;50.196;8.096;2023-07-13T03:13:37;18.50;55.40
15983;DHT22;14442;50.196;8.096;2023-07-13T03:16:04;18.40;55.50
15983;DHT22;14442;50.196;8.096;2023-07-13T03:18:31;18.40;55.40
15983;DHT22;14442;50.196;8.096;2023-07-13T03:20:58;18.40;55.50
15983;DHT22;14442;50.196;8.096;2023-07-13T03:23:26;18.40;55.70
15983;DHT22;14442;50.196;8.096;2023-07-13T03:26:02;18.30;55.60
15983;DHT22;14442;50.196;8.096;2023-07-13T03:28:29;18.40;55.50
15983;DHT22;14442;50.196;8.096;2023-07-13T03:31:07;18.40;55.60
15983;DHT22;14442;50.196;8.096;2023-07-13T03:33:34;18.30;55.50
15983;DHT22;14442;50.196;8.096;2023-07-13T03:36:01;18.40;55.40
15983;DHT22;14442;50.196;8.096;2023-07-13T03:38:30;18.50;55.30
15983;DHT22;14442;50.196;8.096;2023-07-13T03:40:56;18.50;55.30
15983;DHT22;14442;50.196;8.096;2023-07-13T03:43:23;18.40;55.10
15983;DHT22;14442;50.196;8.096;2023-07-13T03:45:50;18.40;55.30
15983;DHT22;14442;50.196;8.096;2023-07-13T03:48:16;18.30;55.90
15983;DHT22;14442;50.196;8.096;2023-07-13T03:50:43;18.30;55.30
15983;DHT22;14442;50.196;8.096;2023-07-13T03:53:10;18.20;55.30
15983;DHT22;14442;50.196;8.096;2023-07-13T03:55:38;18.20;55.30
15983;DHT22;14442;50.196;8.096;2023-07-13T03:58:23;18.20;55.30
15983;DHT22;14442;50.196;8.096;2023-07-13T04:00:51;18.10;55.30
15983;DHT22;14442;50.196;8.096;2023-07-13T04:03:18;18.20;55.40
15983;DHT22;14442;50.196;8.096;2023-07-13T04:05:45;18.10;55.20
15983;DHT22;14442;50.196;8.096;2023-07-13T04:08:11;18.10;55.30
15983;DHT22;14442;50.196;8.096;2023-07-13T04:10:39;18.10;55.30
15983;DHT22;14442;50.196;8.096;2023-07-13T04:13:06;18.10;55.50
15983;DHT22;14442;50.196;8.096;2023-07-13T04:15:33;18.10;55.60
15983;DHT22;14442;50.196;8.096;2023-07-13T04:18:00;18.10;55.40
15983;DHT22;14442;50.196;8.096;2023-07-13T04:20:26;18.10;55.30
15983;DHT22;14442;50.196;8.096;2023-07-13T04:22:53;18.20;55.20
15983;DHT22;14442;50.196;8.096;2023-07-13T04:25:20;18.10;55.10
15983;DHT22;14442;50.196;8.096;2023-07-13T04:27:49;18.20;55.20
15983;DHT22;14442;50.196;8.096;2023-07-13T04:30:17;18.10;55.40
15983;DHT22;14442;50.196;8.096;2023-07-13T04:32:44;18.00;55.50
15983;DHT22;14442;50.196;8.096;2023-07-13T04:35:10;18.00;55.40
15983;DHT22;14442;50.196;8.096;2023-07-13T04:37:38;18.00;55.60
15983;DHT22;14442;50.196;8.096;2023-07-13T04:40:06;18.00;55.60
15983;DHT22;14442;50.196;8.096;2023-07-13T04:42:37;18.00;55.60
15983;DHT22;14442;50.196;8.096;2023-07-13T04:45:06;18.00;55.80
15983;DHT22;14442;50.196;8.096;2023-07-13T04:47:33;18.00;56.00
15983;DHT22;14442;50.196;8.096;2023-07-13T04:50:00;18.00;56.10
15983;DHT22;14442;50.196;8.096;2023-07-13T04:52:27;18.00;56.20
15983;DHT22;14442;50.196;8.096;2023-07-13T04:54:54;18.10;56.20
15983;DHT22;14442;50.196;8.096;2023-07-13T04:57:20;18.20;56.20
15983;DHT22;14442;50.196;8.096;2023-07-13T04:59:47;18.30;56.10
15983;DHT22;14442;50.196;8.096;2023-07-13T05:02:15;18.40;56.20
15983;DHT22;14442;50.196;8.096;2023-07-13T05:04:42;18.40;56.20
15983;DHT22;14442;50.196;8.096;2023-07-13T05:07:09;18.60;56.20
15983;DHT22;14442;50.196;8.096;2023-07-13T05:09:36;18.50;56.30
15983;DHT22;14442;50.196;8.096;2023-07-13T05:12:03;18.50;56.60
15983;DHT22;14442;50.196;8.096;2023-07-13T05:14:30;18.40;56.90
15983;DHT22;14442;50.196;8.096;2023-07-13T05:16:57;18.40;57.10
15983;DHT22;14442;50.196;8.096;2023-07-13T05:19:25;18.50;57.10
15983;DHT22;14442;50.196;8.096;2023-07-13T05:21:52;18.50;57.20
15983;DHT22;14442;50.196;8.096;2023-07-13T05:24:19;18.50;57.10
15983;DHT22;14442;50.196;8.096;2023-07-13T05:26:45;18.50;57.50
15983;DHT22;14442;50.196;8.096;2023-07-13T05:29:12;18.90;57.00
15983;DHT22;14442;50.196;8.096;2023-07-13T05:31:39;19.40;56.40
15983;DHT22;14442;50.196;8.096;2023-07-13T05:34:06;19.70;55.90
15983;DHT22;14442;50.196;8.096;2023-07-13T05:36:34;19.90;55.60
15983;DHT22;14442;50.196;8.096;2023-07-13T05:39:00;20.10;55.50
15983;DHT22;14442;50.196;8.096;2023-07-13T05:41:27;20.20;55.50
15983;DHT22;14442;50.196;8.096;2023-07-13T05:43:54;20.20;55.30
15983;DHT22;14442;50.196;8.096;2023-07-13T05:46:21;20.30;55.70
15983;DHT22;14442;50.196;8.096;2023-07-13T05:48:47;20.30;55.70
15983;DHT22;14442;50.196;8.096;2023-07-13T05:51:14;20.40;55.90
15983;DHT22;14442;50.196;8.096;2023-07-13T05:53:42;20.50;55.80
15983;DHT22;14442;50.196;8.096;2023-07-13T05:56:09;20.50;55.90
15983;DHT22;14442;50.196;8.096;2023-07-13T05:58:36;20.60;56.00
15983;DHT22;14442;50.196;8.096;2023-07-13T06:01:04;20.60;55.90
15983;DHT22;14442;50.196;8.096;2023-07-13T06:03:31;20.60;56.00
15983;DHT22;14442;50.196;8.096;2023-07-13T06:05:58;20.60;56.00
15983;DHT22;14442;50.196;8.096;2023-07-13T06:08:26;20.70;55.90
15983;DHT22;14442;50.196;8.096;2023-07-13T06:10:54;20.70;56.00
15983;DHT22;14442;50.196;8.096;2023-07-13T06:13:21;20.70;56.20
15983;DHT22;14442;50.196;8.096;2023-07-13T06:15:48;20.80;56.30
15983;DHT22;14442;50.196;8.096;2023-07-13T06:18:15;20.80;56.40
15983;DHT22;14442;50.196;8.096;2023-07-13T06:20:42;20.80;56.40
15983;DHT22;14442;50.196;8.096;2023-07-13T06:23:09;20.80;56.70
15983;DHT22;14442;50.196;8.096;2023-07-13T06:25:35;20.90;56.40
15983;DHT22;14442;50.196;8.096;2023-07-13T06:28:03;20.90;56.00
15983;DHT22;14442;50.196;8.096;2023-07-13T06:30:30;20.90;55.80
15983;DHT22;14442;50.196;8.096;2023-07-13T06:32:57;20.90;55.70
15983;DHT22;14442;50.196;8.096;2023-07-13T06:35:24;20.90;55.70
15983;DHT22;14442;50.196;8.096;2023-07-13T06:37:51;20.90;55.70
15983;DHT22;14442;50.196;8.096;2023-07-13T06:40:17;21.00;56.30
15983;DHT22;14442;50.196;8.096;2023-07-13T06:42:44;21.10;56.60
15983;DHT22;14442;50.196;8.096;2023-07-13T06:45:12;21.10;56.70
15983;DHT22;14442;50.196;8.096;2023-07-13T06:47:39;21.10;56.70
15983;DHT22;14442;50.196;8.096;2023-07-13T06:50:07;21.20;56.80
15983;DHT22;14442;50.196;8.096;2023-07-13T06:52:34;21.20;56.50
15983;DHT22;14442;50.196;8.096;2023-07-13T06:55:01;21.20;56.60
15983;DHT22;14442;50.196;8.096;2023-07-13T06:57:27;21.20;56.70
15983;DHT22;14442;50.196;8.096;2023-07-13T06:59:54;21.30;56.70
15983;DHT22;14442;50.196;8.096;2023-07-13T07:02:22;21.20;56.30
15983;DHT22;14442;50.196;8.096;2023-07-13T07:04:49;21.10;56.40
15983;DHT22;14442;50.196;8.096;2023-07-13T07:07:16;21.20;56.60
15983;DHT22;14442;50.196;8.096;2023-07-13T07:09:43;21.20;56.70
15983;DHT22;14442;50.196;8.096;2023-07-13T07:12:09;21.30;56.70
15983;DHT22;14442;50.196;8.096;2023-07-13T07:14:36;21.30;56.80
15983;DHT22;14442;50.196;8.096;2023-07-13T07:17:03;21.30;56.80
15983;DHT22;14442;50.196;8.096;2023-07-13T07:19:31;21.40;56.90
15983;DHT22;14442;50.196;8.096;2023-07-13T07:21:58;21.40;56.90
15983;DHT22;14442;50.196;8.096;2023-07-13T07:24:24;21.40;56.90
15983;DHT22;14442;50.196;8.096;2023-07-13T07:26:52;21.40;56.80
15983;DHT22;14442;50.196;8.096;2023-07-13T07:29:18;21.50;56.90
15983;DHT22;14442;50.196;8.096;2023-07-13T07:31:45;21.50;56.80
15983;DHT22;14442;50.196;8.096;2023-07-13T07:34:12;21.50;56.80
15983;DHT22;14442;50.196;8.096;2023-07-13T07:36:40;21.60;56.90
15983;DHT22;14442;50.196;8.096;2023-07-13T07:39:06;21.60;56.80
15983;DHT22;14442;50.196;8.096;2023-07-13T07:41:33;21.70;57.30
15983;DHT22;14442;50.196;8.096;2023-07-13T07:44:00;21.70;57.30
15983;DHT22;14442;50.196;8.096;2023-07-13T07:46:26;21.70;57.50
15983;DHT22;14442;50.196;8.096;2023-07-13T07:48:54;21.80;57.70
15983;DHT22;14442;50.196;8.096;2023-07-13T07:51:21;21.80;57.80
15983;DHT22;14442;50.196;8.096;2023-07-13T07:53:49;21.80;58.10
15983;DHT22;14442;50.196;8.096;2023-07-13T07:56:16;21.90;58.20
15983;DHT22;14442;50.196;8.096;2023-07-13T07:58:43;22.00;58.30
15983;DHT22;14442;50.196;8.096;2023-07-13T08:01:10;22.00;58.30
15983;DHT22;14442;50.196;8.096;2023-07-13T08:03:37;22.10;58.40
15983;DHT22;14442;50.196;8.096;2023-07-13T08:06:04;22.10;58.40
15983;DHT22;14442;50.196;8.096;2023-07-13T08:08:30;22.10;58.30
15983;DHT22;14442;50.196;8.096;2023-07-13T08:11:02;22.10;58.40
15983;DHT22;14442;50.196;8.096;2023-07-13T08:13:29;22.20;58.50
15983;DHT22;14442;50.196;8.096;2023-07-13T08:15:56;22.10;58.50
15983;DHT22;14442;50.196;8.096;2023-07-13T08:18:23;22.20;58.60
15983;DHT22;14442;50.196;8.096;2023-07-13T08:20:50;22.10;58.50
15983;DHT22;14442;50.196;8.096;2023-07-13T08:23:17;22.10;58.40
15983;DHT22;14442;50.196;8.096;2023-07-13T08:25:47;22.10;58.60
15983;DHT22;14442;50.196;8.096;2023-07-13T08:28:19;22.10;58.40
15983;DHT22;14442;50.196;8.096;2023-07-13T08:30:46;22.10;58.40
15983;DHT22;14442;50.196;8.096;2023-07-13T08:33:14;22.10;58.30
15983;DHT22;14442;50.196;8.096;2023-07-13T08:35:41;22.10;58.20
15983;DHT22;14442;50.196;8.096;2023-07-13T08:38:07;22.10;58.40
15983;DHT22;14442;50.196;8.096;2023-07-13T08:40:34;22.20;58.60
15983;DHT22;14442;50.196;8.096;2023-07-13T08:43:01;22.20;58.30
15983;DHT22;14442;50.196;8.096;2023-07-13T08:45:34;22.10;58.10
15983;DHT22;14442;50.196;8.096;2023-07-13T08:48:11;22.10;58.00
15983;DHT22;14442;50.196;8.096;2023-07-13T08:50:46;22.00;57.80
15983;DHT22;14442;50.196;8.096;2023-07-13T08:53:15;22.00;57.90
15983;DHT22;14442;50.196;8.096;2023-07-13T08:55:43;22.00;57.60
15983;DHT22;14442;50.196;8.096;2023-07-13T08:58:12;22.00;57.60
15983;DHT22;14442;50.196;8.096;2023-07-13T09:00:46;22.00;57.70
15983;DHT22;14442;50.196;8.096;2023-07-13T09:03:19;22.00;57.40
15983;DHT22;14442;50.196;8.096;2023-07-13T09:05:51;22.00;57.30
15983;DHT22;14442;50.196;8.096;2023-07-13T09:08:33;22.00;57.30
15983;DHT22;14442;50.196;8.096;2023-07-13T09:11:07;22.00;57.20
15983;DHT22;14442;50.196;8.096;2023-07-13T09:13:45;22.00;57.10
15983;DHT22;14442;50.196;8.096;2023-07-13T09:16:14;22.00;56.60
15983;DHT22;14442;50.196;8.096;2023-07-13T09:18:45;21.90;56.90
15983;DHT22;14442;50.196;8.096;2023-07-13T09:21:15;22.00;56.80
15983;DHT22;14442;50.196;8.096;2023-07-13T09:23:43;22.00;56.70
15983;DHT22;14442;50.196;8.096;2023-07-13T09:26:14;22.10;56.70
15983;DHT22;14442;50.196;8.096;2023-07-13T09:28:43;22.10;56.50
15983;DHT22;14442;50.196;8.096;2023-07-13T09:31:15;22.10;56.20
15983;DHT22;14442;50.196;8.096;2023-07-13T09:33:43;22.10;56.40
15983;DHT22;14442;50.196;8.096;2023-07-13T09:36:19;22.10;56.40
15983;DHT22;14442;50.196;8.096;2023-07-13T09:38:49;22.10;56.60
15983;DHT22;14442;50.196;8.096;2023-07-13T09:41:27;22.10;56.70
15983;DHT22;14442;50.196;8.096;2023-07-13T09:44:02;22.10;56.60
15983;DHT22;14442;50.196;8.096;2023-07-13T09:46:35;22.10;56.60
15983;DHT22;14442;50.196;8.096;2023-07-13T09:49:02;22.10;56.70
15983;DHT22;14442;50.196;8.096;2023-07-13T09:51:29;22.20;56.80
15983;DHT22;14442;50.196;8.096;2023-07-13T09:53:56;22.30;56.90
15983;DHT22;14442;50.196;8.096;2023-07-13T09:56:26;22.30;57.00
15983;DHT22;14442;50.196;8.096;2023-07-13T09:58:53;22.30;57.20
15983;DHT22;14442;50.196;8.096;2023-07-13T10:01:32;22.30;57.70
15983;DHT22;14442;50.196;8.096;2023-07-13T10:04:01;22.30;57.10
15983;DHT22;14442;50.196;8.096;2023-07-13T10:06:28;22.40;57.20
15983;DHT22;14442;50.196;8.096;2023-07-13T10:08:56;22.40;57.20
15983;DHT22;14442;50.196;8.096;2023-07-13T10:11:26;22.40;57.30
15983;DHT22;14442;50.196;8.096;2023-07-13T10:13:56;22.40;57.30
15983;DHT22;14442;50.196;8.096;2023-07-13T10:16:25;22.40;57.30
15983;DHT22;14442;50.196;8.096;2023-07-13T10:18:55;22.40;57.00
15983;DHT22;14442;50.196;8.096;2023-07-13T10:21:28;22.40;56.40
15983;DHT22;14442;50.196;8.096;2023-07-13T10:23:57;22.40;56.40
15983;DHT22;14442;50.196;8.096;2023-07-13T10:26:31;22.40;56.60
15983;DHT22;14442;50.196;8.096;2023-07-13T10:29:03;22.40;56.80
15983;DHT22;14442;50.196;8.096;2023-07-13T10:31:31;22.40;56.60
15983;DHT22;14442;50.196;8.096;2023-07-13T10:33:58;22.30;56.70
15983;DHT22;14442;50.196;8.096;2023-07-13T10:36:32;22.30;56.60
15983;DHT22;14442;50.196;8.096;2023-07-13T10:39:02;22.30;56.60
15983;DHT22;14442;50.196;8.096;2023-07-13T10:41:32;22.40;56.30
15983;DHT22;14442;50.196;8.096;2023-07-13T10:44:01;22.30;56.20
15983;DHT22;14442;50.196;8.096;2023-07-13T10:46:29;22.40;56.40
15983;DHT22;14442;50.196;8.096;2023-07-13T10:49:00;22.40;56.30
15983;DHT22;14442;50.196;8.096;2023-07-13T10:51:29;22.30;56.30
15983;DHT22;14442;50.196;8.096;2023-07-13T10:54:17;22.30;56.10
15983;DHT22;14442;50.196;8.096;2023-07-13T10:56:45;22.30;56.40
15983;DHT22;14442;50.196;8.096;2023-07-13T10:59:15;22.40;56.50
15983;DHT22;14442;50.196;8.096;2023-07-13T11:01:54;22.40;56.50
15983;DHT22;14442;50.196;8.096;2023-07-13T11:04:22;22.40;56.30
15983;DHT22;14442;50.196;8.096;2023-07-13T11:06:56;22.40;56.30
15983;DHT22;14442;50.196;8.096;2023-07-13T11:09:37;22.40;55.90
15983;DHT22;14442;50.196;8.096;2023-07-13T11:12:10;22.40;56.00
15983;DHT22;14442;50.196;8.096;2023-07-13T11:15:06;22.40;56.00
15983;DHT22;14442;50.196;8.096;2023-07-13T11:17:46;22.40;56.10
15983;DHT22;14442;50.196;8.096;2023-07-13T11:20:32;22.50;55.80
15983;DHT22;14442;50.196;8.096;2023-07-13T11:23:20;22.50;56.00
15983;DHT22;14442;50.196;8.096;2023-07-13T11:25:53;22.60;56.30
15983;DHT22;14442;50.196;8.096;2023-07-13T11:28:23;22.50;56.30
15983;DHT22;14442;50.196;8.096;2023-07-13T11:31:03;22.50;56.30
15983;DHT22;14442;50.196;8.096;2023-07-13T11:33:53;22.50;56.80
15983;DHT22;14442;50.196;8.096;2023-07-13T11:36:21;22.50;56.10
15983;DHT22;14442;50.196;8.096;2023-07-13T11:38:59;22.50;56.00
15983;DHT22;14442;50.196;8.096;2023-07-13T11:41:30;22.50;55.90
15983;DHT22;14442;50.196;8.096;2023-07-13T11:44:06;22.50;56.00
15983;DHT22;14442;50.196;8.096;2023-07-13T11:46:34;22.50;56.20
15983;DHT22;14442;50.196;8.096;2023-07-13T11:49:00;22.50;56.30
15983;DHT22;14442;50.196;8.096;2023-07-13T11:51:29;22.50;56.10
15983;DHT22;14442;50.196;8.096;2023-07-13T11:54:05;22.60;56.00
15983;DHT22;14442;50.196;8.096;2023-07-13T11:56:32;22.60;56.00
15983;DHT22;14442;50.196;8.096;2023-07-13T11:59:04;22.60;55.90
15983;DHT22;14442;50.196;8.096;2023-07-13T12:01:32;22.60;55.80
15983;DHT22;14442;50.196;8.096;2023-07-13T12:04:00;22.60;56.10
15983;DHT22;14442;50.196;8.096;2023-07-13T12:06:30;22.60;56.00
15983;DHT22;14442;50.196;8.096;2023-07-13T12:08:59;22.50;56.00
15983;DHT22;14442;50.196;8.096;2023-07-13T12:11:27;22.50;56.00
15983;DHT22;14442;50.196;8.096;2023-07-13T12:13:53;22.50;56.00
15983;DHT22;14442;50.196;8.096;2023-07-13T12:16:26;22.50;55.80
15983;DHT22;14442;50.196;8.096;2023-07-13T12:18:54;22.50;56.00
15983;DHT22;14442;50.196;8.096;2023-07-13T12:21:31;22.60;56.00
15983;DHT22;14442;50.196;8.096;2023-07-13T12:24:00;22.70;56.20
15983;DHT22;14442;50.196;8.096;2023-07-13T12:26:29;22.70;56.30
15983;DHT22;14442;50.196;8.096;2023-07-13T12:28:59;22.80;56.30
15983;DHT22;14442;50.196;8.096;2023-07-13T12:31:32;22.80;56.20
15983;DHT22;14442;50.196;8.096;2023-07-13T12:34:01;22.80;56.20
15983;DHT22;14442;50.196;8.096;2023-07-13T12:36:34;22.90;56.20
15983;DHT22;14442;50.196;8.096;2023-07-13T12:39:12;22.90;56.50
15983;DHT22;14442;50.196;8.096;2023-07-13T12:41:39;22.90;56.50
15983;DHT22;14442;50.196;8.096;2023-07-13T12:44:10;22.90;56.40
15983;DHT22;14442;50.196;8.096;2023-07-13T12:46:38;22.90;56.50
15983;DHT22;14442;50.196;8.096;2023-07-13T12:49:07;22.90;56.70
15983;DHT22;14442;50.196;8.096;2023-07-13T12:51:34;22.90;56.60
15983;DHT22;14442;50.196;8.096;2023-07-13T12:54:15;22.90;56.70
15983;DHT22;14442;50.196;8.096;2023-07-13T12:56:43;22.90;57.10
15983;DHT22;14442;50.196;8.096;2023-07-13T12:59:16;22.90;57.10
15983;DHT22;14442;50.196;8.096;2023-07-13T13:01:45;23.00;57.10
15983;DHT22;14442;50.196;8.096;2023-07-13T13:04:12;23.00;57.10
15983;DHT22;14442;50.196;8.096;2023-07-13T13:06:39;23.00;57.20
15983;DHT22;14442;50.196;8.096;2023-07-13T13:09:12;23.00;57.30
15983;DHT22;14442;50.196;8.096;2023-07-13T13:11:40;23.00;57.20
15983;DHT22;14442;50.196;8.096;2023-07-13T13:14:07;23.00;57.20
15983;DHT22;14442;50.196;8.096;2023-07-13T13:16:46;23.00;57.20
15983;DHT22;14442;50.196;8.096;2023-07-13T13:19:15;22.90;57.10
15983;DHT22;14442;50.196;8.096;2023-07-13T13:21:44;22.90;57.20
15983;DHT22;14442;50.196;8.096;2023-07-13T13:24:14;22.90;57.30
15983;DHT22;14442;50.196;8.096;2023-07-13T13:26:42;22.90;57.40
15983;DHT22;14442;50.196;8.096;2023-07-13T13:29:12;22.90;57.30
15983;DHT22;14442;50.196;8.096;2023-07-13T13:31:40;22.90;57.20
15983;DHT22;14442;50.196;8.096;2023-07-13T13:34:09;22.90;57.10
15983;DHT22;14442;50.196;8.096;2023-07-13T13:36:37;22.90;57.10
15983;DHT22;14442;50.196;8.096;2023-07-13T13:39:08;23.00;57.20
15983;DHT22;14442;50.196;8.096;2023-07-13T13:41:44;22.90;57.10
15983;DHT22;14442;50.196;8.096;2023-07-13T13:44:12;22.90;57.10
15983;DHT22;14442;50.196;8.096;2023-07-13T13:46:39;22.90;57.10
15983;DHT22;14442;50.196;8.096;2023-07-13T13:49:08;22.90;57.00
15983;DHT22;14442;50.196;8.096;2023-07-13T13:51:38;22.90;57.00
15983;DHT22;14442;50.196;8.096;2023-07-13T13:54:08;22.90;57.60
15983;DHT22;14442;50.196;8.096;2023-07-13T13:56:36;22.90;56.90
15983;DHT22;14442;50.196;8.096;2023-07-13T13:59:04;23.00;57.00
15983;DHT22;14442;50.196;8.096;2023-07-13T14:01:31;23.00;57.00
15983;DHT22;14442;50.196;8.096;2023-07-13T14:03:57;23.00;56.90
15983;DHT22;14442;50.196;8.096;2023-07-13T14:06:25;23.00;56.90
15983;DHT22;14442;50.196;8.096;2023-07-13T14:08:51;23.00;56.90
15983;DHT22;14442;50.196;8.096;2023-07-13T14:11:20;23.00;56.80
15983;DHT22;14442;50.196;8.096;2023-07-13T14:13:49;23.00;56.60
15983;DHT22;14442;50.196;8.096;2023-07-13T14:16:20;23.00;56.60
15983;DHT22;14442;50.196;8.096;2023-07-13T14:18:48;23.00;56.60
15983;DHT22;14442;50.196;8.096;2023-07-13T14:21:17;22.90;56.50
15983;DHT22;14442;50.196;8.096;2023-07-13T14:23:44;22.90;56.60
15983;DHT22;14442;50.196;8.096;2023-07-13T14:26:12;22.90;56.70
15983;DHT22;14442;50.196;8.096;2023-07-13T14:28:42;22.90;56.70
15983;DHT22;14442;50.196;8.096;2023-07-13T14:31:09;22.90;56.70
15983;DHT22;14442;50.196;8.096;2023-07-13T14:33:38;22.90;56.80
15983;DHT22;14442;50.196;8.096;2023-07-13T14:36:26;22.90;56.80
15983;DHT22;14442;50.196;8.096;2023-07-13T14:38:55;22.80;56.70
15983;DHT22;14442;50.196;8.096;2023-07-13T14:41:22;22.80;56.60
15983;DHT22;14442;50.196;8.096;2023-07-13T14:43:49;22.90;56.60
15983;DHT22;14442;50.196;8.096;2023-07-13T14:46:28;22.80;56.60
15983;DHT22;14442;50.196;8.096;2023-07-13T14:49:01;22.80;56.70
15983;DHT22;14442;50.196;8.096;2023-07-13T14:51:27;22.80;56.50
15983;DHT22;14442;50.196;8.096;2023-07-13T14:53:54;22.80;56.50
15983;DHT22;14442;50.196;8.096;2023-07-13T14:56:21;22.80;56.60
15983;DHT22;14442;50.196;8.096;2023-07-13T14:58:47;22.80;56.70
15983;DHT22;14442;50.196;8.096;2023-07-13T15:01:15;22.80;56.60
15983;DHT22;14442;50.196;8.096;2023-07-13T15:03:45;22.80;56.70
15983;DHT22;14442;50.196;8.096;2023-07-13T15:06:14;22.80;56.60
15983;DHT22;14442;50.196;8.096;2023-07-13T15:08:40;22.80;56.60
15983;DHT22;14442;50.196;8.096;2023-07-13T15:11:08;22.70;56.50
15983;DHT22;14442;50.196;8.096;2023-07-13T15:13:37;22.70;56.50
15983;DHT22;14442;50.196;8.096;2023-07-13T15:16:08;22.70;56.50
15983;DHT22;14442;50.196;8.096;2023-07-13T15:18:37;22.70;56.50
15983;DHT22;14442;50.196;8.096;2023-07-13T15:21:08;22.70;57.30
15983;DHT22;14442;50.196;8.096;2023-07-13T15:23:37;22.80;56.70
15983;DHT22;14442;50.196;8.096;2023-07-13T15:26:04;22.80;56.70
15983;DHT22;14442;50.196;8.096;2023-07-13T15:28:32;22.70;56.60
15983;DHT22;14442;50.196;8.096;2023-07-13T15:30:59;22.70;56.60
15983;DHT22;14442;50.196;8.096;2023-07-13T15:33:29;22.70;56.70
15983;DHT22;14442;50.196;8.096;2023-07-13T15:35:56;22.80;56.80
15983;DHT22;14442;50.196;8.096;2023-07-13T15:38:25;22.80;56.70
15983;DHT22;14442;50.196;8.096;2023-07-13T15:40:54;22.80;56.60